Time;durP1;ratioP1;P1;durP2;ratioP2;P2;SDS_P1;SDS_P2;PMS_P1;PMS_P2;Temp;Humidity;BMP_temperature;BMP_pressure;BME280_temperature;BME280_humidity;BME280_pressure;Samples;Min_cycle;Max_cycle;Signal;HPM_P1;HPM_P2
2022/07/14 00:01:31;;;;;;;13.35;3.42;;;;;;;16.97;100.00;101742.56;5039970;28;20052;-76
2022/07/14 00:03:56;;;;;;;20.52;3.80;;;;;;;16.87;100.00;101748.06;5045102;28;20484;-76
2022/07/14 00:06:22;;;;;;;16.80;3.95;;;;;;;16.81;100.00;101737.56;5041183;28;20060;-76
2022/07/14 00:08:47;;;;;;;17.40;3.53;;;;;;;16.81;100.00;101732.88;5002943;28;20037;-76
2022/07/14 00:11:13;;;;;;;19.30;3.90;;;;;;;16.78;100.00;101735.94;5050701;28;20040;-75
2022/07/14 00:13:39;;;;;;;19.30;4.20;;;;;;;16.71;100.00;101727.31;5030948;28;20481;-76
2022/07/14 00:16:04;;;;;;;17.13;3.70;;;;;;;16.69;100.00;101728.47;5046989;28;20592;-76
2022/07/14 00:18:30;;;;;;;19.98;3.60;;;;;;;16.69;100.00;101729.38;5050781;28;20040;-76
2022/07/14 00:20:56;;;;;;;14.57;3.20;;;;;;;16.77;100.00;101733.31;5011178;28;20116;-76
2022/07/14 00:23:24;;;;;;;23.38;3.90;;;;;;;16.63;100.00;101729.06;5050331;28;20067;-76
2022/07/14 00:25:50;;;;;;;21.00;3.75;;;;;;;16.57;100.00;101724.06;5043951;28;20440;-76
2022/07/14 00:28:16;;;;;;;20.85;4.38;;;;;;;16.59;100.00;101731.19;5042734;28;20453;-76
2022/07/14 00:30:42;;;;;;;15.57;4.90;;;;;;;16.63;100.00;101720.75;5037636;28;20067;-75
2022/07/14 00:33:07;;;;;;;18.05;4.15;;;;;;;16.49;100.00;101708.16;5024114;28;20060;-76
2022/07/14 00:35:33;;;;;;;27.42;5.35;;;;;;;16.35;100.00;101703.91;5038811;28;20041;-76
2022/07/14 00:37:59;;;;;;;24.23;5.50;;;;;;;16.07;100.00;101694.44;5045469;28;20041;-76
2022/07/14 00:40:25;;;;;;;16.98;5.32;;;;;;;16.01;100.00;101689.47;5041420;28;20133;-76
2022/07/14 00:42:51;;;;;;;23.50;4.65;;;;;;;16.01;100.00;101693.09;5038793;28;20393;-76
2022/07/14 00:45:20;;;;;;;20.92;4.65;;;;;;;16.15;100.00;101691.84;5044857;28;20111;-76
2022/07/14 00:47:47;;;;;;;21.25;4.43;;;;;;;16.25;100.00;101703.84;5042017;28;20041;-76
2022/07/14 00:50:15;;;;;;;25.55;5.35;;;;;;;16.27;100.00;101703.72;5041036;28;20535;-76
2022/07/14 00:52:42;;;;;;;20.10;4.68;;;;;;;16.25;100.00;101717.69;5045161;28;20105;-76
2022/07/14 00:55:10;;;;;;;20.30;5.15;;;;;;;16.52;100.00;101714.28;5042070;28;20496;-75
2022/07/14 00:57:36;;;;;;;22.15;4.40;;;;;;;16.52;100.00;101718.94;5038345;28;20044;-76
2022/07/14 01:00:03;;;;;;;21.67;4.53;;;;;;;16.60;100.00;101729.31;5036291;28;20132;-76
2022/07/14 01:02:29;;;;;;;25.55;4.97;;;;;;;16.67;100.00;101728.59;5032674;28;20037;-76
2022/07/14 01:04:54;;;;;;;24.42;4.63;;;;;;;16.51;100.00;101731.00;5039409;28;20051;-76
2022/07/14 01:07:20;;;;;;;29.23;5.03;;;;;;;16.42;100.00;101727.19;5038274;28;20497;-76
2022/07/14 01:09:46;;;;;;;24.08;4.97;;;;;;;16.49;100.00;101730.28;5036441;28;20029;-75
2022/07/14 01:12:12;;;;;;;20.10;4.68;;;;;;;16.31;100.00;101721.75;5034608;28;20072;-76
2022/07/14 01:14:38;;;;;;;23.35;4.20;;;;;;;16.53;100.00;101729.88;5031802;28;20028;-76
2022/07/14 01:17:06;;;;;;;18.33;3.90;;;;;;;16.60;100.00;101732.09;5044856;28;20037;-75
2022/07/14 01:19:32;;;;;;;22.48;5.15;;;;;;;16.52;100.00;101739.16;5053067;28;20029;-75
2022/07/14 01:21:58;;;;;;;23.23;4.43;;;;;;;16.35;100.00;101737.06;5049127;28;20115;-76
2022/07/14 01:24:25;;;;;;;25.52;4.70;;;;;;;16.26;100.00;101732.34;5017836;28;20140;-75
2022/07/14 01:26:51;;;;;;;31.67;5.60;;;;;;;16.25;100.00;101738.88;5036941;28;20031;-75
2022/07/14 01:29:18;;;;;;;22.08;4.68;;;;;;;16.30;100.00;101737.47;5040532;28;20056;-75
2022/07/14 01:31:44;;;;;;;24.88;5.13;;;;;;;16.31;100.00;101750.25;5039777;28;20032;-75
2022/07/14 01:34:10;;;;;;;18.25;4.15;;;;;;;16.25;100.00;101755.47;5048347;28;20111;-75
2022/07/14 01:36:35;;;;;;;19.13;4.60;;;;;;;16.19;100.00;101747.75;5040688;28;20128;-75
2022/07/14 01:39:02;;;;;;;13.95;4.60;;;;;;;16.31;100.00;101744.75;5047640;28;20134;-74
2022/07/14 01:41:28;;;;;;;22.10;4.80;;;;;;;16.25;100.00;101745.31;5034747;28;20134;-76
2022/07/14 01:43:54;;;;;;;21.85;5.47;;;;;;;16.20;100.00;101744.84;5049970;28;20043;-76
2022/07/14 01:46:19;;;;;;;18.10;5.18;;;;;;;16.30;100.00;101737.47;5040107;28;20033;-76
2022/07/14 01:48:45;;;;;;;26.83;4.90;;;;;;;16.40;100.00;101737.53;5030156;28;20037;-76
2022/07/14 01:51:10;;;;;;;23.08;4.50;;;;;;;16.37;100.00;101723.13;5031253;28;20029;-76
2022/07/14 01:53:36;;;;;;;25.38;5.05;;;;;;;16.25;100.00;101723.19;5050504;28;20043;-76
2022/07/14 01:56:01;;;;;;;27.05;5.53;;;;;;;16.18;100.00;101727.50;5038610;28;20110;-76
2022/07/14 01:58:27;;;;;;;27.73;5.65;;;;;;;16.26;100.00;101727.69;5027871;28;20119;-76
2022/07/14 02:03:36;;;;;;;34.33;4.97;;;;;;;16.28;100.00;101714.63;5040113;28;20196;-76
2022/07/14 02:06:03;;;;;;;27.05;5.25;;;;;;;16.30;100.00;101715.38;5041061;28;20108;-75
2022/07/14 02:08:28;;;;;;;28.92;5.72;;;;;;;16.24;100.00;101723.34;5030465;28;20041;-75
2022/07/14 02:13:38;;;;;;;27.40;4.90;;;;;;;16.24;100.00;101717.81;5040338;28;20045;-75
2022/07/14 02:16:04;;;;;;;21.80;4.97;;;;;;;16.24;100.00;101723.34;5037206;28;20028;-75
2022/07/14 02:18:30;;;;;;;21.35;5.15;;;;;;;16.22;100.00;101723.47;5038294;28;20045;-76
2022/07/14 02:20:55;;;;;;;24.38;6.22;;;;;;;16.15;100.00;101717.63;5021094;28;20037;-75
2022/07/14 02:23:23;;;;;;;35.42;5.70;;;;;;;16.20;100.00;101708.03;5021617;28;20366;-75
2022/07/14 02:25:49;;;;;;;21.95;5.55;;;;;;;16.11;100.00;101716.13;5007836;28;20086;-75
2022/07/14 02:28:14;;;;;;;29.33;5.40;;;;;;;15.95;100.00;101711.13;5034522;28;20501;-75
2022/07/14 02:30:40;;;;;;;24.67;4.90;;;;;;;15.92;100.00;101710.47;5019396;28;20041;-75
2022/07/14 02:33:06;;;;;;;29.40;5.35;;;;;;;15.91;100.00;101715.13;5044639;28;20037;-75
2022/07/14 02:35:32;;;;;;;23.75;5.93;;;;;;;15.79;100.00;101724.53;5040319;28;20507;-75
2022/07/14 02:37:57;;;;;;;23.65;5.55;;;;;;;15.69;100.00;101720.75;5041581;28;20029;-75
2022/07/14 02:40:23;;;;;;;25.92;5.32;;;;;;;15.78;100.00;101733.81;5025649;28;20085;-74
2022/07/14 02:42:49;;;;;;;29.17;7.63;;;;;;;15.77;100.00;101723.75;5026788;28;20049;-75
2022/07/14 02:45:14;;;;;;;28.15;6.13;;;;;;;15.88;100.00;101725.59;5022780;28;20361;-75
2022/07/14 02:47:40;;;;;;;23.27;6.03;;;;;;;15.90;100.00;101718.03;5036653;28;20119;-75
2022/07/14 02:50:06;;;;;;;20.60;5.70;;;;;;;15.88;100.00;101712.66;5043553;28;20037;-75
2022/07/14 02:52:32;;;;;;;26.40;6.47;;;;;;;15.84;100.00;101716.69;5035917;28;20040;-75
2022/07/14 02:54:57;;;;;;;30.42;6.65;;;;;;;15.90;100.00;101718.03;5050193;28;20033;-76
2022/07/14 02:57:22;;;;;;;32.17;6.22;;;;;;;15.75;100.00;101709.19;5044751;28;20472;-75
2022/07/14 02:59:48;;;;;;;30.42;5.85;;;;;;;15.70;100.00;101704.06;5038539;28;20059;-76
2022/07/14 03:02:13;;;;;;;23.10;6.20;;;;;;;15.56;100.00;101701.63;5024839;28;20045;-76
2022/07/14 03:04:40;;;;;;;25.10;5.75;;;;;;;15.39;100.00;101701.19;5015555;28;20056;-75
2022/07/14 03:07:05;;;;;;;27.05;5.32;;;;;;;15.48;100.00;101696.78;5047437;28;20037;-76
2022/07/14 03:09:31;;;;;;;28.50;6.32;;;;;;;15.58;100.00;101699.63;5022338;28;20481;-75
2022/07/14 03:11:57;;;;;;;23.17;6.30;;;;;;;15.43;100.00;101699.06;5031650;28;20105;-75
2022/07/14 03:14:22;;;;;;;23.70;6.22;;;;;;;15.41;100.00;101704.72;5047724;28;20083;-75
2022/07/14 03:16:48;;;;;;;25.13;6.88;;;;;;;15.43;100.00;101696.31;5004516;28;20032;-75
2022/07/14 03:19:13;;;;;;;24.60;7.95;;;;;;;15.43;100.00;101708.22;5036996;28;20049;-74
2022/07/14 03:21:39;;;;;;;26.85;7.10;;;;;;;15.28;100.00;101697.59;5052119;28;20075;-77
2022/07/14 03:24:06;;;;;;;21.35;6.05;;;;;;;15.30;100.00;101695.59;5043048;28;20049;-77
2022/07/14 03:26:32;;;;;;;30.45;7.10;;;;;;;15.24;100.00;101703.38;5038825;28;20060;-77
2022/07/14 03:28:57;;;;;;;26.23;6.55;;;;;;;15.29;100.00;101705.75;5030752;28;20496;-76
2022/07/14 03:31:23;;;;;;;21.50;5.80;;;;;;;15.23;100.00;101698.00;5056010;28;20476;-76
2022/07/14 03:33:48;;;;;;;25.27;6.80;;;;;;;15.27;100.00;101695.88;5020143;28;20041;-76
2022/07/14 03:36:15;;;;;;;24.65;6.95;;;;;;;15.30;100.00;101690.97;5044498;28;21601;-76
2022/07/14 03:38:40;;;;;;;29.58;7.30;;;;;;;15.10;100.00;101681.59;5048228;28;20029;-77
2022/07/14 03:41:06;;;;;;;34.85;7.72;;;;;;;15.01;100.00;101677.75;5029607;28;20040;-76
2022/07/14 03:43:33;;;;;;;24.25;6.43;;;;;;;15.09;100.00;101682.63;5037506;28;20033;-75
2022/07/14 03:45:59;;;;;;;32.05;6.22;;;;;;;14.98;100.00;101685.44;5044897;28;20489;-75
2022/07/14 03:48:24;;;;;;;39.10;7.93;;;;;;;14.94;100.00;101675.66;5038491;28;20029;-75
2022/07/14 03:50:50;;;;;;;32.72;8.07;;;;;;;14.91;100.00;101682.31;5043306;28;20037;-75
2022/07/14 03:53:16;;;;;;;35.03;7.97;;;;;;;15.03;100.00;101686.78;5036739;28;20503;-75
2022/07/14 03:55:45;;;;;;;35.15;7.07;;;;;;;14.93;100.00;101685.81;5035280;28;20463;-75
2022/07/14 03:58:10;;;;;;;38.83;7.85;;;;;;;14.84;100.00;101693.00;5040179;28;20040;-75
2022/07/14 04:00:36;;;;;;;25.13;7.03;;;;;;;14.83;100.00;101693.97;5043164;28;20061;-76
2022/07/14 04:03:03;;;;;;;29.65;6.10;;;;;;;14.80;100.00;101696.13;5036296;28;20048;-76
2022/07/14 04:05:28;;;;;;;32.80;7.78;;;;;;;14.86;100.00;101685.47;5036250;28;20041;-76
2022/07/14 04:07:54;;;;;;;30.05;7.07;;;;;;;14.92;100.00;101696.97;5029300;28;20061;-77
2022/07/14 04:10:19;;;;;;;22.25;6.20;;;;;;;14.95;100.00;101699.47;5046245;28;20496;-77
2022/07/14 04:12:45;;;;;;;31.10;7.15;;;;;;;14.88;100.00;101705.50;5031984;28;20036;-76
2022/07/14 04:15:11;;;;;;;26.23;6.95;;;;;;;14.84;100.00;101709.53;5042329;28;20489;-77
2022/07/14 04:17:38;;;;;;;25.63;7.47;;;;;;;14.85;100.00;101721.44;5033627;28;20033;-77
2022/07/14 04:20:04;;;;;;;31.13;8.63;;;;;;;14.95;100.00;101719.66;5040459;28;20037;-77
2022/07/14 04:22:30;;;;;;;31.95;7.40;;;;;;;14.92;100.00;101721.78;5035629;28;20074;-77
2022/07/14 04:24:56;;;;;;;21.38;6.78;;;;;;;14.89;100.00;101720.19;5035066;28;20073;-77
2022/07/14 04:27:22;;;;;;;34.80;8.75;;;;;;;14.80;100.00;101720.94;5036606;28;20389;-77
2022/07/14 04:29:47;;;;;;;37.90;7.40;;;;;;;14.91;100.00;101720.06;5045717;28;20033;-77
2022/07/14 04:32:13;;;;;;;28.50;7.28;;;;;;;14.84;100.00;101726.06;5037694;28;20397;-76
2022/07/14 04:34:39;;;;;;;21.55;6.75;;;;;;;14.91;100.00;101720.06;5046864;28;20065;-77
2022/07/14 04:37:05;;;;;;;28.60;8.57;;;;;;;14.92;100.00;101722.69;5025737;28;20057;-77
2022/07/14 04:39:31;;;;;;;43.63;8.55;;;;;;;14.90;100.00;101713.63;5033285;28;20056;-77
2022/07/14 04:41:56;;;;;;;34.10;7.80;;;;;;;15.02;100.00;101700.69;5035308;28;20037;-77
2022/07/14 04:44:22;;;;;;;39.08;8.40;;;;;;;14.98;100.00;101710.25;5045285;28;20488;-77
2022/07/14 04:46:48;;;;;;;34.88;8.23;;;;;;;14.96;100.00;101717.78;5048614;28;20067;-77
2022/07/14 04:52:04;;;;;;;33.33;7.32;;;;;;;15.15;100.00;101709.72;5047699;28;20491;-77
2022/07/14 04:54:30;;;;;;;35.60;9.68;;;;;;;15.06;100.00;101707.72;5042489;28;20033;-77
2022/07/14 04:56:56;;;;;;;40.17;8.70;;;;;;;14.99;100.00;101707.38;5034428;28;20041;-75
2022/07/14 04:59:21;;;;;;;36.72;9.43;;;;;;;15.00;100.00;101705.47;5034352;28;20029;-76
2022/07/14 05:01:47;;;;;;;41.15;10.20;;;;;;;14.98;100.00;101701.97;5047328;28;20504;-77
2022/07/14 05:04:12;;;;;;;36.50;8.57;;;;;;;15.04;100.00;101694.06;5012170;28;20090;-77
2022/07/14 05:06:38;;;;;;;39.65;8.45;;;;;;;15.03;100.00;101683.16;5040008;28;20075;-76
2022/07/14 05:09:03;;;;;;;35.05;8.55;;;;;;;15.13;100.00;101695.16;5028869;28;20033;-77
2022/07/14 05:11:29;;;;;;;26.08;8.20;;;;;;;15.25;100.00;101684.97;5043549;28;20033;-77
2022/07/14 05:13:55;;;;;;;29.75;8.13;;;;;;;15.27;100.00;101690.34;5024778;28;20029;-77
2022/07/14 05:16:20;;;;;;;31.40;8.75;;;;;;;15.31;100.00;101698.22;5060927;28;20065;-77
2022/07/14 05:18:46;;;;;;;35.70;7.97;;;;;;;15.42;100.00;101697.31;5061844;28;20040;-77
2022/07/14 05:21:12;;;;;;;35.00;8.65;;;;;;;15.48;100.00;101717.97;5034996;28;20060;-77
2022/07/14 05:23:38;;;;;;;28.08;7.63;;;;;;;15.51;100.00;101721.34;5046695;28;20094;-77
2022/07/14 05:26:09;;;;;;;42.92;8.68;;;;;;;15.54;100.00;101726.59;5041675;28;20057;-77
2022/07/14 05:28:35;;;;;;;48.45;8.75;;;;;;;15.62;100.00;101723.19;5048550;28;20080;-77
2022/07/14 05:31:00;;;;;;;42.47;8.35;;;;;;;15.77;100.00;101721.00;5057868;28;20029;-76
2022/07/14 05:33:26;;;;;;;45.45;7.75;;;;;;;15.80;100.00;101729.00;5049779;28;20042;-77
2022/07/14 05:35:52;;;;;;;32.38;8.00;;;;;;;16.10;100.00;101717.16;5049423;28;20433;-76
2022/07/14 05:38:17;;;;;;;33.50;8.57;;;;;;;16.33;100.00;101725.25;5024382;28;20049;-77
2022/07/14 05:40:43;;;;;;;29.45;7.28;;;;;;;16.66;100.00;101721.34;5029493;28;20040;-77
2022/07/14 05:43:08;;;;;;;37.83;7.82;;;;;;;17.05;100.00;101726.13;5034309;28;20047;-77
2022/07/14 05:45:33;;;;;;;43.20;8.35;;;;;;;17.02;100.00;101718.09;5034191;28;20124;-77
2022/07/14 05:47:59;;;;;;;39.58;8.30;;;;;;;17.22;100.00;101719.03;5065926;28;20033;-77
2022/07/14 05:50:25;;;;;;;38.28;8.02;;;;;;;17.30;100.00;101721.06;5062413;28;20485;-77
2022/07/14 05:52:51;;;;;;;29.67;6.60;;;;;;;17.52;100.00;101718.03;5059408;28;20132;-78
2022/07/14 05:55:16;;;;;;;32.33;7.13;;;;;;;17.99;100.00;101715.38;5047547;28;20083;-78
2022/07/14 05:57:42;;;;;;;38.47;6.68;;;;;;;18.05;100.00;101722.22;5043318;28;20056;-77
2022/07/14 06:00:08;;;;;;;34.65;6.38;;;;;;;18.12;100.00;101720.63;5063619;28;20056;-77
2022/07/14 06:02:34;;;;;;;31.42;5.80;;;;;;;18.27;100.00;101723.78;5017867;28;20090;-77
2022/07/14 06:04:59;;;;;;;30.20;5.97;;;;;;;18.45;100.00;101732.19;5046057;28;20444;-77
2022/07/14 06:07:25;;;;;;;25.27;6.00;;;;;;;18.67;100.00;101725.34;5049402;28;20111;-78
2022/07/14 06:09:50;;;;;;;32.20;5.50;;;;;;;18.51;100.00;101720.50;5048082;28;20029;-77
2022/07/14 06:12:16;;;;;;;31.08;6.65;;;;;;;19.18;100.00;101720.28;5041293;28;20433;-77
2022/07/14 06:14:43;;;;;;;30.25;5.50;;;;;;;19.08;100.00;101725.03;5054779;28;20386;-77
2022/07/14 06:17:09;;;;;;;28.88;4.95;;;;;;;19.90;100.00;101730.53;5047568;28;20215;-75
2022/07/14 06:19:35;;;;;;;20.20;4.55;;;;;;;19.12;100.00;101726.47;5042889;28;20512;-76
2022/07/14 06:22:08;;;;;;;31.63;5.25;;;;;;;19.52;100.00;101716.81;5034717;28;20032;-76
2022/07/14 06:24:36;;;;;;;37.75;5.05;;;;;;;19.81;100.00;101713.81;5043578;28;20045;-76
2022/07/14 06:27:02;;;;;;;29.02;4.90;;;;;;;20.18;100.00;101714.56;5031658;28;20048;-76
2022/07/14 06:29:27;;;;;;;24.27;4.97;;;;;;;20.21;100.00;101717.03;5032613;28;20389;-75
2022/07/14 06:31:55;;;;;;;26.77;4.93;;;;;;;19.95;100.00;101708.69;5036175;28;20549;-77
2022/07/14 06:34:22;;;;;;;24.88;4.93;;;;;;;20.44;100.00;101708.13;5043649;28;20116;-77
2022/07/14 06:36:47;;;;;;;25.85;4.25;;;;;;;20.65;100.00;101708.63;5035914;28;20056;-77
2022/07/14 06:39:14;;;;;;;35.63;4.25;;;;;;;20.74;100.00;101701.16;4984337;28;20029;-77
2022/07/14 06:41:40;;;;;;;31.02;4.03;;;;;;;20.81;100.00;101707.81;5030899;28;20079;-78
2022/07/14 06:44:06;;;;;;;29.17;5.45;;;;;;;20.81;100.00;101702.25;5053353;28;20037;-77
2022/07/14 06:46:32;;;;;;;33.42;4.53;;;;;;;21.12;100.00;101704.44;5047857;28;20075;-77
2022/07/14 06:48:58;;;;;;;21.73;4.10;;;;;;;21.11;100.00;101709.13;5053058;28;20033;-77
2022/07/14 06:51:24;;;;;;;23.65;4.32;;;;;;;21.11;100.00;101699.91;5050735;28;20119;-78
2022/07/14 06:53:50;;;;;;;36.15;4.35;;;;;;;20.68;100.00;101699.09;5040481;28;20151;-78
2022/07/14 06:56:15;;;;;;;30.65;4.30;;;;;;;20.97;100.00;101709.78;5023053;28;20022;-77
2022/07/14 06:58:41;;;;;;;28.02;4.38;;;;;;;21.71;100.00;101687.66;5052576;28;20037;-77
2022/07/14 07:01:07;;;;;;;23.38;4.32;;;;;;;21.30;100.00;101698.75;5035315;28;20423;-77
2022/07/14 07:03:32;;;;;;;24.95;3.65;;;;;;;21.67;100.00;101702.97;5052759;28;20396;-77
2022/07/14 07:08:42;;;;;;;18.55;3.08;;;;;;;21.92;100.00;101705.75;5035414;28;20037;-76
2022/07/14 07:11:09;;;;;;;26.42;2.60;;;;;;;22.14;100.00;101706.97;5032834;28;20040;-76
2022/07/14 07:13:35;;;;;;;20.35;2.75;;;;;;;22.52;100.00;101708.09;5019186;28;20100;-76
2022/07/14 07:16:05;;;;;;;19.42;3.10;;;;;;;21.99;100.00;101706.81;5039429;28;20071;-76
2022/07/14 07:18:32;;;;;;;18.50;2.30;;;;;;;22.50;100.00;101713.00;5038589;28;20037;-76
2022/07/14 07:20:57;;;;;;;29.92;3.72;;;;;;;22.21;100.00;101708.84;5036775;28;20025;-76
2022/07/14 07:23:23;;;;;;;16.63;2.38;;;;;;;21.69;100.00;101713.94;5035327;28;20091;-77
2022/07/14 07:25:48;;;;;;;17.60;2.70;;;;;;;22.21;100.00;101708.84;5016890;28;20393;-77
2022/07/14 07:28:14;;;;;;;19.63;2.70;;;;;;;22.11;100.00;101708.16;5027381;28;20140;-78
2022/07/14 07:30:39;;;;;;;18.65;2.95;;;;;;;22.25;100.00;101717.75;5016038;28;20037;-78
2022/07/14 07:33:05;;;;;;;17.27;2.33;;;;;;;22.57;98.33;101710.38;5032547;28;20040;-78
2022/07/14 07:35:30;;;;;;;19.88;2.97;;;;;;;22.75;98.37;101712.91;5032697;28;20025;-77
2022/07/14 07:37:56;;;;;;;15.52;3.03;;;;;;;22.57;99.28;101704.78;4999340;28;20057;-77
2022/07/14 07:40:21;;;;;;;16.75;3.60;;;;;;;22.55;99.91;101702.16;5032667;28;20040;-77
2022/07/14 07:42:48;;;;;;;21.15;2.90;;;;;;;23.26;93.59;101707.78;5051425;28;20056;-77
2022/07/14 07:45:14;;;;;;;20.63;2.95;;;;;;;23.02;96.19;101696.72;5050495;28;20033;-77
2022/07/14 07:47:39;;;;;;;15.32;2.67;;;;;;;23.08;96.90;101698.81;5034446;28;20041;-77
2022/07/14 07:50:06;;;;;;;14.05;2.50;;;;;;;23.32;91.24;101695.00;5034840;28;20033;-77
2022/07/14 07:52:31;;;;;;;12.15;2.80;;;;;;;22.67;93.25;101697.06;5034508;28;20094;-76
2022/07/14 07:54:57;;;;;;;15.63;2.80;;;;;;;22.93;90.87;101693.97;5020008;28;20037;-77
2022/07/14 07:57:22;;;;;;;9.70;2.53;;;;;;;24.12;82.94;101696.44;5018357;28;20033;-77
2022/07/14 07:59:49;;;;;;;17.90;2.83;;;;;;;23.81;86.28;101689.00;5035318;28;20029;-77
2022/07/14 08:02:18;;;;;;;17.77;2.60;;;;;;;23.07;88.82;101683.09;5050188;28;20033;-77
2022/07/14 08:04:44;;;;;;;18.02;2.53;;;;;;;23.23;88.85;101676.53;5054637;28;20116;-77
2022/07/14 08:07:10;;;;;;;24.33;3.05;;;;;;;23.43;87.89;101676.91;5055936;28;20572;-77
2022/07/14 08:09:35;;;;;;;17.73;2.78;;;;;;;23.20;88.15;101668.53;5038230;28;20053;-77
2022/07/14 08:12:01;;;;;;;15.82;2.45;;;;;;;23.27;87.46;101667.59;5055868;28;20047;-79
2022/07/14 08:17:10;;;;;;;18.50;2.58;;;;;;;23.72;85.17;101661.31;5052043;28;20038;-77
2022/07/14 08:19:36;;;;;;;16.27;4.07;;;;;;;22.94;90.71;101658.53;5019718;28;20091;-78
2022/07/14 08:22:02;;;;;;;15.23;3.50;;;;;;;23.38;88.60;101666.31;5036681;28;20029;-78
2022/07/14 08:24:29;;;;;;;18.63;3.47;;;;;;;23.22;89.69;101655.22;5035606;28;20040;-78
2022/07/14 08:26:55;;;;;;;14.02;3.53;;;;;;;24.15;86.08;101659.69;5012860;28;20469;-77
2022/07/14 08:29:20;;;;;;;18.85;4.22;;;;;;;25.04;79.54;101667.16;5018305;28;20065;-77
2022/07/14 08:31:46;;;;;;;17.00;3.55;;;;;;;23.79;86.25;101659.47;5019001;28;20041;-77
2022/07/14 08:34:11;;;;;;;18.02;3.47;;;;;;;24.26;80.89;101663.94;5041852;28;20114;-77
2022/07/14 08:36:37;;;;;;;29.63;3.88;;;;;;;23.98;80.06;101667.38;5054235;28;20048;-77
2022/07/14 08:39:05;;;;;;;13.60;3.25;;;;;;;23.81;79.44;101657.38;5054756;28;20028;-78
2022/07/14 08:41:35;;;;;;;12.93;3.00;;;;;;;24.09;79.50;101648.38;5055092;28;20029;-77
2022/07/14 08:44:02;;;;;;;12.27;3.70;;;;;;;24.30;78.50;101654.09;5054424;28;20626;-78
2022/07/14 08:46:30;;;;;;;17.42;3.25;;;;;;;24.34;80.81;101647.03;5021306;28;20040;-78
2022/07/14 08:48:55;;;;;;;14.85;3.15;;;;;;;24.66;79.07;101646.84;5053384;28;20436;-78
2022/07/14 08:51:21;;;;;;;12.18;3.13;;;;;;;24.77;75.90;101644.41;5021054;28;20036;-78
2022/07/14 08:53:47;;;;;;;15.43;3.17;;;;;;;25.10;70.76;101641.16;5021161;28;20061;-78
2022/07/14 08:56:13;;;;;;;13.57;2.90;;;;;;;24.65;71.92;101646.00;5054830;28;20491;-77
2022/07/14 08:58:40;;;;;;;13.43;2.45;;;;;;;24.78;69.02;101648.09;5005221;28;20431;-78
2022/07/14 09:01:06;;;;;;;12.38;3.03;;;;;;;24.43;71.35;101646.94;5038719;28;20040;-78
2022/07/14 09:03:32;;;;;;;11.07;2.33;;;;;;;24.67;70.56;101652.25;5055297;28;20396;-78
2022/07/14 09:05:59;;;;;;;12.63;2.80;;;;;;;24.99;66.81;101652.88;5037715;28;20033;-77
2022/07/14 09:08:25;;;;;;;7.88;2.40;;;;;;;25.30;67.71;101658.22;5053555;28;20033;-78
2022/07/14 09:10:50;;;;;;;11.52;2.35;;;;;;;25.17;68.28;101645.94;5034454;28;20049;-77
2022/07/14 09:13:19;;;;;;;10.10;1.98;;;;;;;25.73;64.63;101640.50;4985896;28;20041;-78
2022/07/14 09:15:47;;;;;;;10.25;1.90;;;;;;;25.02;67.17;101648.78;5036098;28;20104;-78
2022/07/14 09:18:23;;;;;;;12.20;2.45;;;;;;;25.14;66.89;101645.28;5035381;28;20061;-78
2022/07/14 09:20:49;;;;;;;12.02;2.20;;;;;;;25.30;69.49;101651.72;5035772;28;20031;-77
2022/07/14 09:23:15;;;;;;;7.28;2.03;;;;;;;25.59;63.01;101656.31;5038345;28;20033;-78
2022/07/14 09:25:40;;;;;;;9.60;2.00;;;;;;;25.30;64.46;101657.31;5053995;28;20517;-78
2022/07/14 09:28:09;;;;;;;12.38;2.13;;;;;;;24.93;68.72;101648.91;5055163;28;20039;-78
2022/07/14 09:30:34;;;;;;;9.20;2.20;;;;;;;25.14;69.52;101647.22;5039182;28;20032;-77
2022/07/14 09:33:04;;;;;;;14.48;2.40;;;;;;;25.14;68.44;101650.88;5053063;28;20580;-78
2022/07/14 09:35:36;;;;;;;9.10;2.35;;;;;;;25.10;66.16;101648.66;5020383;28;20034;-77
2022/07/14 09:38:19;;;;;;;8.13;2.10;;;;;;;25.06;68.50;101659.41;5014997;28;20053;-78
2022/07/14 09:40:47;;;;;;;8.00;2.10;;;;;;;24.92;66.92;101654.72;5033835;28;20124;-77
2022/07/14 09:43:14;;;;;;;11.15;2.00;;;;;;;25.11;68.16;101642.88;5008122;28;20037;-78
2022/07/14 09:45:42;;;;;;;10.68;2.00;;;;;;;25.45;66.27;101643.25;5053788;28;20074;-78
2022/07/14 09:48:16;;;;;;;8.35;1.70;;;;;;;25.91;62.44;101645.59;5041345;28;20041;-78
2022/07/14 09:50:59;;;;;;;9.60;1.88;;;;;;;25.47;62.17;101644.78;5033685;28;20033;-77
2022/07/14 09:53:31;;;;;;;10.65;1.77;;;;;;;25.34;63.33;101647.47;5034969;28;20056;-78
2022/07/14 09:56:03;;;;;;;10.45;1.63;;;;;;;25.62;61.78;101657.88;5016942;28;20048;-78
2022/07/14 09:58:40;;;;;;;7.15;1.40;;;;;;;25.37;60.26;101644.25;5035109;28;20187;-77
2022/07/14 10:01:08;;;;;;;10.25;1.77;;;;;;;25.21;61.85;101645.34;5035626;28;20113;-78
2022/07/14 10:03:35;;;;;;;8.25;1.60;;;;;;;25.33;58.97;101647.66;5033983;28;20057;-78
2022/07/14 10:06:03;;;;;;;8.80;1.10;;;;;;;25.33;59.35;101636.44;5033203;28;20151;-78
2022/07/14 10:08:31;;;;;;;8.93;1.60;;;;;;;26.02;58.26;101633.84;5048873;28;20028;-78
2022/07/14 10:10:59;;;;;;;6.90;1.30;;;;;;;25.53;60.41;101636.63;5054210;28;20069;-78
2022/07/14 10:13:25;;;;;;;8.82;2.05;;;;;;;25.76;60.67;101634.47;5054204;28;20035;-78
2022/07/14 10:15:55;;;;;;;7.68;1.40;;;;;;;26.16;58.84;101631.97;5019948;28;20119;-78
2022/07/14 10:18:22;;;;;;;4.47;1.10;;;;;;;25.83;58.09;101634.53;5035708;28;20567;-78
2022/07/14 10:20:50;;;;;;;4.88;1.38;;;;;;;26.40;55.51;101630.63;5034102;28;20029;-77
2022/07/14 10:23:20;;;;;;;6.50;1.30;;;;;;;26.34;52.02;101639.00;5016343;28;20048;-78
2022/07/14 10:25:48;;;;;;;2.92;0.88;;;;;;;26.41;52.32;101642.72;5034308;28;20033;-78
2022/07/14 10:28:15;;;;;;;4.57;0.80;;;;;;;26.48;50.25;101640.81;5051102;28;20059;-78
2022/07/14 10:31:05;;;;;;;6.43;1.20;;;;;;;26.36;50.72;101639.66;5018610;28;20096;-78
2022/07/14 10:34:01;;;;;;;4.93;1.17;;;;;;;25.90;51.77;101645.81;5033843;28;20107;-78
2022/07/14 10:36:55;;;;;;;6.70;1.13;;;;;;;26.45;52.74;101640.34;5052579;28;20485;-78
2022/07/14 10:39:35;;;;;;;;;;;;;;;27.50;48.11;101643.78;5051726;28;20044;-78
2022/07/14 10:42:22;;;;;;;7.95;1.10;;;;;;;26.91;50.83;101634.97;5052404;28;19912;-78
2022/07/14 10:44:50;;;;;;;6.55;1.40;;;;;;;26.58;51.19;101646.03;5053682;28;20032;-78
2022/07/14 10:47:17;;;;;;;6.00;1.20;;;;;;;25.89;55.15;101644.06;5016296;28;20028;-77
2022/07/14 10:50:07;;;;;;;6.70;1.30;;;;;;;25.44;56.47;101647.97;5033081;28;20036;-78
2022/07/14 10:52:35;;;;;;;5.88;1.42;;;;;;;25.69;53.18;101639.16;5049968;28;20108;-78
2022/07/14 10:55:22;;;;;;;4.93;1.00;;;;;;;25.06;55.47;101631.38;5035433;28;20021;-77
2022/07/14 10:58:04;;;;;;;5.05;1.02;;;;;;;25.33;56.63;101634.50;5053515;28;20024;-78
2022/07/14 11:00:42;;;;;;;6.05;1.20;;;;;;;25.46;56.55;101630.97;5052511;28;20078;-77
2022/07/14 11:03:16;;;;;;;4.80;0.90;;;;;;;26.12;54.80;101630.66;5050480;28;20045;-77
2022/07/14 11:06:07;;;;;;;6.13;1.10;;;;;;;25.87;53.23;101633.03;5051966;28;20120;-77
2022/07/14 11:08:57;;;;;;;6.38;1.50;;;;;;;25.57;53.45;101624.81;5048274;28;20045;-77
2022/07/14 11:11:23;;;;;;;8.77;1.17;;;;;;;25.22;55.05;101633.06;5038606;28;20083;-78
2022/07/14 11:14:00;;;;;;;9.68;1.33;;;;;;;25.25;54.91;101629.88;5053294;28;20060;-77
2022/07/14 11:16:47;;;;;;;6.15;1.20;;;;;;;25.08;52.57;101632.06;5052698;28;20135;-78
2022/07/14 11:19:33;;;;;;;8.32;1.25;;;;;;;25.55;53.67;101637.28;5035048;28;20064;-78
2022/07/14 11:22:34;;;;;;;10.30;1.20;;;;;;;25.96;52.27;101637.47;5032431;28;20044;-78
2022/07/14 11:25:01;;;;;;;6.05;1.15;;;;;;;26.19;51.59;101639.13;5035343;28;20041;-79
2022/07/14 11:27:34;;;;;;;4.82;1.42;;;;;;;25.97;51.67;101632.72;5014715;28;20049;-78
2022/07/14 11:30:28;;;;;;;6.38;1.63;;;;;;;25.95;51.96;101638.50;5057740;28;20033;-79